sensor_id;sensor_type;location;lat;lon;timestamp;pressure;altitude;pressure_sealevel;temperature;humidity
77106;BME280;66057;54.718;18.426;2022-12-20T00:01:13;101469.00;;;0.79;91.30
77106;BME280;66057;54.718;18.426;2022-12-20T00:03:40;101438.41;;;0.76;91.01
77106;BME280;66057;54.718;18.426;2022-12-20T00:06:06;101469.50;;;0.94;90.62
77106;BME280;66057;54.718;18.426;2022-12-20T00:08:33;101449.94;;;1.01;90.28
77106;BME280;66057;54.718;18.426;2022-12-20T00:11:03;101459.22;;;1.11;89.96
77106;BME280;66057;54.718;18.426;2022-12-20T00:13:30;101450.91;;;1.12;89.69
77106;BME280;66057;54.718;18.426;2022-12-20T00:16:30;101451.31;;;1.16;89.62
77106;BME280;66057;54.718;18.426;2022-12-20T00:18:58;101428.34;;;1.05;90.18
77106;BME280;66057;54.718;18.426;2022-12-20T00:21:25;101437.28;;;1.20;89.91
77106;BME280;66057;54.718;18.426;2022-12-20T00:23:53;101427.16;;;1.20;89.61
77106;BME280;66057;54.718;18.426;2022-12-20T00:26:22;101440.63;;;1.29;89.81
77106;BME280;66057;54.718;18.426;2022-12-20T00:28:51;101430.22;;;1.26;89.46
77106;BME280;66057;54.718;18.426;2022-12-20T00:31:19;101424.25;;;1.25;89.88
77106;BME280;66057;54.718;18.426;2022-12-20T00:33:48;101430.50;;;1.29;89.65
77106;BME280;66057;54.718;18.426;2022-12-20T00:36:15;101407.91;;;1.22;89.57
77106;BME280;66057;54.718;18.426;2022-12-20T00:38:43;101416.31;;;1.31;89.40
77106;BME280;66057;54.718;18.426;2022-12-20T00:41:11;101419.03;;;1.43;89.35
77106;BME280;66057;54.718;18.426;2022-12-20T00:43:39;101428.19;;;1.51;89.31
77106;BME280;66057;54.718;18.426;2022-12-20T00:46:07;101426.59;;;1.61;89.92
77106;BME280;66057;54.718;18.426;2022-12-20T00:48:34;101419.63;;;1.69;88.87
77106;BME280;66057;54.718;18.426;2022-12-20T00:51:01;101421.69;;;1.73;89.73
77106;BME280;66057;54.718;18.426;2022-12-20T00:53:28;101409.50;;;1.69;89.77
77106;BME280;66057;54.718;18.426;2022-12-20T00:55:53;101388.72;;;1.63;90.42
77106;BME280;66057;54.718;18.426;2022-12-20T00:58:19;101385.56;;;1.65;90.43
77106;BME280;66057;54.718;18.426;2022-12-20T01:00:46;101405.75;;;1.84;89.80
77106;BME280;66057;54.718;18.426;2022-12-20T01:03:12;101389.41;;;1.81;89.09
77106;BME280;66057;54.718;18.426;2022-12-20T01:05:37;101370.91;;;1.82;89.39
77106;BME280;66057;54.718;18.426;2022-12-20T01:08:04;101370.63;;;1.79;89.31
77106;BME280;66057;54.718;18.426;2022-12-20T01:10:30;101392.47;;;1.97;89.67
77106;BME280;66057;54.718;18.426;2022-12-20T01:12:56;101387.00;;;1.92;89.53
77106;BME280;66057;54.718;18.426;2022-12-20T01:15:22;101359.38;;;1.85;90.10
77106;BME280;66057;54.718;18.426;2022-12-20T01:17:48;101349.75;;;1.91;89.89
77106;BME280;66057;54.718;18.426;2022-12-20T01:20:14;101367.78;;;2.04;89.69
77106;BME280;66057;54.718;18.426;2022-12-20T01:22:40;101370.44;;;2.16;89.60
77106;BME280;66057;54.718;18.426;2022-12-20T01:25:06;101366.25;;;2.16;89.41
77106;BME280;66057;54.718;18.426;2022-12-20T01:27:32;101351.16;;;2.08;88.70
77106;BME280;66057;54.718;18.426;2022-12-20T01:29:57;101370.44;;;2.26;89.67
77106;BME280;66057;54.718;18.426;2022-12-20T01:32:26;101365.25;;;2.25;89.13
77106;BME280;66057;54.718;18.426;2022-12-20T01:34:53;101373.50;;;2.32;89.14
77106;BME280;66057;54.718;18.426;2022-12-20T01:37:18;101373.63;;;2.34;89.33
77106;BME280;66057;54.718;18.426;2022-12-20T01:39:44;101368.78;;;2.37;88.54
77106;BME280;66057;54.718;18.426;2022-12-20T01:42:13;101351.78;;;2.26;89.14
77106;BME280;66057;54.718;18.426;2022-12-20T01:47:09;101370.94;;;2.42;89.44
77106;BME280;66057;54.718;18.426;2022-12-20T01:49:40;101355.72;;;2.42;89.73
77106;BME280;66057;54.718;18.426;2022-12-20T01:52:11;101368.56;;;2.54;89.22
77106;BME280;66057;54.718;18.426;2022-12-20T01:54:54;101375.00;;;2.60;89.52
77106;BME280;66057;54.718;18.426;2022-12-20T01:57:28;101355.97;;;2.55;89.22
77106;BME280;66057;54.718;18.426;2022-12-20T01:59:54;101355.44;;;2.70;88.77
77106;BME280;66057;54.718;18.426;2022-12-20T02:02:22;101339.22;;;2.68;89.91
77106;BME280;66057;54.718;18.426;2022-12-20T02:04:47;101362.50;;;2.84;89.43
77106;BME280;66057;54.718;18.426;2022-12-20T02:07:18;101332.22;;;2.75;89.24
77106;BME280;66057;54.718;18.426;2022-12-20T02:09:45;101349.56;;;2.91;88.91
77106;BME280;66057;54.718;18.426;2022-12-20T02:12:16;101358.69;;;2.99;89.28
77106;BME280;66057;54.718;18.426;2022-12-20T02:30:56;101346.69;;;3.18;88.68
77106;BME280;66057;54.718;18.426;2022-12-20T02:33:25;101340.31;;;3.23;89.14
77106;BME280;66057;54.718;18.426;2022-12-20T02:35:52;101333.00;;;3.16;88.72
77106;BME280;66057;54.718;18.426;2022-12-20T02:38:32;101347.16;;;3.24;89.24
77106;BME280;66057;54.718;18.426;2022-12-20T02:41:10;101329.19;;;3.11;89.57
77106;BME280;66057;54.718;18.426;2022-12-20T02:43:41;101325.13;;;3.03;88.98
77106;BME280;66057;54.718;18.426;2022-12-20T02:46:27;101320.56;;;3.09;89.55
77106;BME280;66057;54.718;18.426;2022-12-20T02:48:57;101327.94;;;3.06;90.22
77106;BME280;66057;54.718;18.426;2022-12-20T02:51:27;101303.31;;;3.05;89.42
77106;BME280;66057;54.718;18.426;2022-12-20T02:53:54;101310.06;;;3.26;90.03
77106;BME280;66057;54.718;18.426;2022-12-20T02:56:35;101306.94;;;3.19;89.22
77106;BME280;66057;54.718;18.426;2022-12-20T02:59:06;101329.09;;;3.31;88.52
77106;BME280;66057;54.718;18.426;2022-12-20T03:01:39;101305.69;;;3.14;88.75
77106;BME280;66057;54.718;18.426;2022-12-20T03:04:09;101341.44;;;3.27;88.62
77106;BME280;66057;54.718;18.426;2022-12-20T03:06:35;101346.09;;;3.32;88.82
77106;BME280;66057;54.718;18.426;2022-12-20T03:09:02;101317.75;;;3.16;89.18
77106;BME280;66057;54.718;18.426;2022-12-20T03:11:27;101339.25;;;3.31;88.30
77106;BME280;66057;54.718;18.426;2022-12-20T03:13:53;101332.66;;;3.33;88.30
77106;BME280;66057;54.718;18.426;2022-12-20T03:16:19;101306.69;;;3.16;87.92
77106;BME280;66057;54.718;18.426;2022-12-20T03:18:45;101289.28;;;3.20;88.16
77106;BME280;66057;54.718;18.426;2022-12-20T03:21:11;101313.63;;;3.28;88.72
77106;BME280;66057;54.718;18.426;2022-12-20T03:23:36;101334.25;;;3.43;88.54
77106;BME280;66057;54.718;18.426;2022-12-20T03:26:02;101317.88;;;3.39;87.60
77106;BME280;66057;54.718;18.426;2022-12-20T03:28:28;101313.84;;;3.31;88.01
77106;BME280;66057;54.718;18.426;2022-12-20T03:30:53;101299.88;;;3.26;88.38
77106;BME280;66057;54.718;18.426;2022-12-20T03:33:19;101328.06;;;3.39;88.48
77106;BME280;66057;54.718;18.426;2022-12-20T03:35:46;101306.75;;;3.27;87.99
77106;BME280;66057;54.718;18.426;2022-12-20T03:38:12;101318.16;;;3.32;88.08
77106;BME280;66057;54.718;18.426;2022-12-20T03:40:39;101320.16;;;3.36;88.32
77106;BME280;66057;54.718;18.426;2022-12-20T03:43:05;101307.81;;;3.41;88.58
77106;BME280;66057;54.718;18.426;2022-12-20T03:45:30;101308.47;;;3.38;88.55
77106;BME280;66057;54.718;18.426;2022-12-20T03:47:56;101299.66;;;3.23;88.53
77106;BME280;66057;54.718;18.426;2022-12-20T03:50:22;101325.59;;;3.41;89.24
77106;BME280;66057;54.718;18.426;2022-12-20T03:52:48;101306.13;;;3.30;88.83
77106;BME280;66057;54.718;18.426;2022-12-20T03:55:14;101319.66;;;3.40;88.62
77106;BME280;66057;54.718;18.426;2022-12-20T03:57:40;101317.13;;;3.40;88.98
77106;BME280;66057;54.718;18.426;2022-12-20T04:00:07;101293.66;;;3.33;89.17
77106;BME280;66057;54.718;18.426;2022-12-20T04:02:33;101315.88;;;3.35;89.68
77106;BME280;66057;54.718;18.426;2022-12-20T04:04:58;101317.88;;;3.39;89.85
77106;BME280;66057;54.718;18.426;2022-12-20T04:07:24;101292.66;;;3.31;90.32
77106;BME280;66057;54.718;18.426;2022-12-20T04:09:50;101305.94;;;3.38;90.25
77106;BME280;66057;54.718;18.426;2022-12-20T04:12:17;101290.69;;;3.38;89.59
77106;BME280;66057;54.718;18.426;2022-12-20T04:14:42;101305.13;;;3.49;89.45
77106;BME280;66057;54.718;18.426;2022-12-20T04:17:08;101295.38;;;3.44;89.83
77106;BME280;66057;54.718;18.426;2022-12-20T04:19:34;101309.97;;;3.46;89.66
77106;BME280;66057;54.718;18.426;2022-12-20T04:22:00;101281.84;;;3.33;90.09
77106;BME280;66057;54.718;18.426;2022-12-20T04:24:25;101297.16;;;3.45;90.36
77106;BME280;66057;54.718;18.426;2022-12-20T04:26:51;101319.00;;;3.65;89.89
77106;BME280;66057;54.718;18.426;2022-12-20T04:29:17;101326.13;;;3.69;90.13
77106;BME280;66057;54.718;18.426;2022-12-20T04:31:43;101310.38;;;3.63;89.71
77106;BME280;66057;54.718;18.426;2022-12-20T04:34:08;101301.38;;;3.56;89.70
77106;BME280;66057;54.718;18.426;2022-12-20T04:36:34;101290.34;;;3.56;89.63
77106;BME280;66057;54.718;18.426;2022-12-20T04:38:59;101285.72;;;3.62;89.38
77106;BME280;66057;54.718;18.426;2022-12-20T04:41:25;101311.44;;;3.76;89.68
77106;BME280;66057;54.718;18.426;2022-12-20T04:43:53;101314.88;;;3.77;89.96
77106;BME280;66057;54.718;18.426;2022-12-20T04:46:20;101311.50;;;3.88;89.19
77106;BME280;66057;54.718;18.426;2022-12-20T04:48:46;101297.41;;;3.81;89.56
77106;BME280;66057;54.718;18.426;2022-12-20T04:51:12;101289.97;;;3.73;89.19
77106;BME280;66057;54.718;18.426;2022-12-20T04:53:37;101283.19;;;3.83;89.70
77106;BME280;66057;54.718;18.426;2022-12-20T04:56:30;101310.94;;;3.92;88.87
77106;BME280;66057;54.718;18.426;2022-12-20T04:58:57;101290.94;;;3.97;88.96
77106;BME280;66057;54.718;18.426;2022-12-20T05:01:23;101278.19;;;3.85;89.37
77106;BME280;66057;54.718;18.426;2022-12-20T05:03:49;101296.66;;;3.94;89.59
77106;BME280;66057;54.718;18.426;2022-12-20T05:06:16;101280.50;;;3.82;89.40
77106;BME280;66057;54.718;18.426;2022-12-20T05:08:41;101301.53;;;3.91;89.79
77106;BME280;66057;54.718;18.426;2022-12-20T05:11:08;101301.75;;;3.94;89.88
77106;BME280;66057;54.718;18.426;2022-12-20T05:13:34;101299.75;;;3.90;89.27
77106;BME280;66057;54.718;18.426;2022-12-20T05:16:00;101289.78;;;3.81;89.68
77106;BME280;66057;54.718;18.426;2022-12-20T05:18:26;101300.00;;;3.93;88.91
77106;BME280;66057;54.718;18.426;2022-12-20T05:20:57;101307.72;;;3.94;89.17
77106;BME280;66057;54.718;18.426;2022-12-20T05:23:42;101275.06;;;3.77;89.43
77106;BME280;66057;54.718;18.426;2022-12-20T05:26:30;101299.00;;;3.91;89.56
77106;BME280;66057;54.718;18.426;2022-12-20T05:28:55;101287.50;;;3.96;88.94
77106;BME280;66057;54.718;18.426;2022-12-20T05:31:21;101289.03;;;3.94;88.83
77106;BME280;66057;54.718;18.426;2022-12-20T05:33:47;101292.38;;;3.93;89.55
77106;BME280;66057;54.718;18.426;2022-12-20T05:36:13;101269.03;;;3.87;90.07
77106;BME280;66057;54.718;18.426;2022-12-20T05:38:38;101304.81;;;4.12;90.12
77106;BME280;66057;54.718;18.426;2022-12-20T05:41:04;101305.78;;;4.02;88.73
77106;BME280;66057;54.718;18.426;2022-12-20T05:43:31;101285.19;;;3.87;88.98
77106;BME280;66057;54.718;18.426;2022-12-20T05:45:56;101295.97;;;3.85;89.23
77106;BME280;66057;54.718;18.426;2022-12-20T05:48:22;101294.31;;;3.85;89.60
77106;BME280;66057;54.718;18.426;2022-12-20T05:50:48;101307.72;;;3.94;89.24
77106;BME280;66057;54.718;18.426;2022-12-20T05:53:15;101301.41;;;3.89;88.95
77106;BME280;66057;54.718;18.426;2022-12-20T05:55:47;101295.97;;;3.85;89.05
77106;BME280;66057;54.718;18.426;2022-12-20T05:58:14;101312.81;;;3.94;89.01
77106;BME280;66057;54.718;18.426;2022-12-20T06:00:41;101315.28;;;3.93;89.39
77106;BME280;66057;54.718;18.426;2022-12-20T06:03:08;101292.47;;;3.83;89.29
77106;BME280;66057;54.718;18.426;2022-12-20T06:05:37;101308.59;;;3.83;89.62
77106;BME280;66057;54.718;18.426;2022-12-20T06:08:06;101311.50;;;3.88;89.09
77106;BME280;66057;54.718;18.426;2022-12-20T06:10:33;101323.53;;;3.90;89.96
77106;BME280;66057;54.718;18.426;2022-12-20T06:13:00;101303.03;;;3.77;90.40
77106;BME280;66057;54.718;18.426;2022-12-20T06:15:27;101279.16;;;3.75;90.57
77106;BME280;66057;54.718;18.426;2022-12-20T06:17:53;101284.66;;;3.70;89.76
77106;BME280;66057;54.718;18.426;2022-12-20T06:20:19;101314.31;;;3.81;89.83
77106;BME280;66057;54.718;18.426;2022-12-20T06:22:44;101271.91;;;3.58;89.84
77106;BME280;66057;54.718;18.426;2022-12-20T06:25:10;101294.81;;;3.70;90.25
77106;BME280;66057;54.718;18.426;2022-12-20T06:27:36;101300.91;;;3.72;90.17
77106;BME280;66057;54.718;18.426;2022-12-20T06:30:04;101273.44;;;3.56;89.50
77106;BME280;66057;54.718;18.426;2022-12-20T06:32:30;101254.25;;;3.60;90.07
77106;BME280;66057;54.718;18.426;2022-12-20T06:34:56;101268.59;;;3.59;89.58
77106;BME280;66057;54.718;18.426;2022-12-20T06:37:21;101280.63;;;3.62;90.01
77106;BME280;66057;54.718;18.426;2022-12-20T06:39:47;101261.38;;;3.54;90.02
77106;BME280;66057;54.718;18.426;2022-12-20T06:42:13;101279.00;;;3.62;90.14
77106;BME280;66057;54.718;18.426;2022-12-20T06:44:39;101292.94;;;3.67;90.32
77106;BME280;66057;54.718;18.426;2022-12-20T06:47:04;101281.41;;;3.61;90.51
77106;BME280;66057;54.718;18.426;2022-12-20T06:49:30;101285.19;;;3.66;89.35
77106;BME280;66057;54.718;18.426;2022-12-20T06:51:56;101300.16;;;3.73;89.59
77106;BME280;66057;54.718;18.426;2022-12-20T06:54:22;101291.84;;;3.75;90.56
77106;BME280;66057;54.718;18.426;2022-12-20T06:56:47;101279.75;;;3.83;90.35
77106;BME280;66057;54.718;18.426;2022-12-20T06:59:13;101295.09;;;3.84;89.85
77106;BME280;66057;54.718;18.426;2022-12-20T07:01:39;101291.38;;;3.91;90.25
77106;BME280;66057;54.718;18.426;2022-12-20T07:04:05;101282.31;;;3.94;90.25
77106;BME280;66057;54.718;18.426;2022-12-20T07:06:31;101287.66;;;3.98;89.82
77106;BME280;66057;54.718;18.426;2022-12-20T07:08:58;101277.88;;;3.92;89.75
77106;BME280;66057;54.718;18.426;2022-12-20T07:11:24;101263.72;;;3.95;89.34
77106;BME280;66057;54.718;18.426;2022-12-20T07:13:54;101266.16;;;3.94;89.80
77106;BME280;66057;54.718;18.426;2022-12-20T07:16:21;101303.03;;;4.11;89.59
77106;BME280;66057;54.718;18.426;2022-12-20T07:18:51;101282.09;;;4.03;89.50
77106;BME280;66057;54.718;18.426;2022-12-20T07:21:17;101308.00;;;4.09;89.45
77106;BME280;66057;54.718;18.426;2022-12-20T07:23:45;101310.41;;;4.08;89.36
77106;BME280;66057;54.718;18.426;2022-12-20T07:26:11;101307.72;;;4.16;88.69
77106;BME280;66057;54.718;18.426;2022-12-20T07:28:37;101281.66;;;3.97;89.41
77106;BME280;66057;54.718;18.426;2022-12-20T07:31:03;101283.78;;;4.03;89.09
77106;BME280;66057;54.718;18.426;2022-12-20T07:33:30;101319.88;;;4.20;89.12
77106;BME280;66057;54.718;18.426;2022-12-20T07:36:05;101308.94;;;4.21;89.18
77106;BME280;66057;54.718;18.426;2022-12-20T07:38:32;101293.00;;;4.12;88.97
77106;BME280;66057;54.718;18.426;2022-12-20T07:40:57;101294.19;;;4.17;88.36
77106;BME280;66057;54.718;18.426;2022-12-20T07:43:24;101317.00;;;4.27;88.33
77106;BME280;66057;54.718;18.426;2022-12-20T07:45:55;101310.25;;;4.16;88.26
77106;BME280;66057;54.718;18.426;2022-12-20T07:48:22;101326.41;;;4.28;88.42
77106;BME280;66057;54.718;18.426;2022-12-20T07:50:51;101323.56;;;4.35;88.29
77106;BME280;66057;54.718;18.426;2022-12-20T07:53:19;101323.31;;;4.32;87.75
77106;BME280;66057;54.718;18.426;2022-12-20T07:55:46;101326.88;;;4.34;87.41
77106;BME280;66057;54.718;18.426;2022-12-20T07:58:13;101309.44;;;4.17;87.20
77106;BME280;66057;54.718;18.426;2022-12-20T08:00:40;101318.69;;;4.38;87.76
77106;BME280;66057;54.718;18.426;2022-12-20T08:03:11;101296.72;;;4.17;87.99
77106;BME280;66057;54.718;18.426;2022-12-20T08:05:43;101327.78;;;4.35;87.81
77106;BME280;66057;54.718;18.426;2022-12-20T08:08:11;101313.56;;;4.27;87.47
77106;BME280;66057;54.718;18.426;2022-12-20T08:10:38;101324.13;;;4.31;87.78
77106;BME280;66057;54.718;18.426;2022-12-20T08:13:05;101316.78;;;4.24;86.88
77106;BME280;66057;54.718;18.426;2022-12-20T08:15:32;101341.59;;;4.38;86.90
77106;BME280;66057;54.718;18.426;2022-12-20T08:18:00;101330.09;;;4.44;86.52
77106;BME280;66057;54.718;18.426;2022-12-20T08:20:41;101330.88;;;4.43;86.44
77106;BME280;66057;54.718;18.426;2022-12-20T08:23:07;101320.13;;;4.47;86.68
77106;BME280;66057;54.718;18.426;2022-12-20T08:25:36;101312.84;;;4.39;86.68
77106;BME280;66057;54.718;18.426;2022-12-20T08:28:02;101328.31;;;4.43;87.06
77106;BME280;66057;54.718;18.426;2022-12-20T08:30:28;101323.78;;;4.38;86.84
77106;BME280;66057;54.718;18.426;2022-12-20T08:32:55;101320.13;;;4.47;86.72
77106;BME280;66057;54.718;18.426;2022-12-20T08:35:21;101337.19;;;4.48;86.38
77106;BME280;66057;54.718;18.426;2022-12-20T08:37:50;101325.78;;;4.43;86.44
77106;BME280;66057;54.718;18.426;2022-12-20T08:40:16;101346.13;;;4.43;86.53
77106;BME280;66057;54.718;18.426;2022-12-20T08:42:43;101339.25;;;4.42;87.06
77106;BME280;66057;54.718;18.426;2022-12-20T08:45:10;101321.03;;;4.35;86.41
77106;BME280;66057;54.718;18.426;2022-12-20T08:47:36;101302.75;;;4.29;87.15
77106;BME280;66057;54.718;18.426;2022-12-20T08:50:01;101336.22;;;4.46;87.04
77106;BME280;66057;54.718;18.426;2022-12-20T08:52:28;101321.13;;;4.37;86.50
77106;BME280;66057;54.718;18.426;2022-12-20T08:54:54;101305.63;;;4.34;87.02
77106;BME280;66057;54.718;18.426;2022-12-20T08:57:19;101316.06;;;4.49;86.22
77106;BME280;66057;54.718;18.426;2022-12-20T08:59:45;101290.91;;;4.42;87.06
77106;BME280;66057;54.718;18.426;2022-12-20T09:02:13;101289.50;;;4.45;87.64
77106;BME280;66057;54.718;18.426;2022-12-20T09:04:38;101312.31;;;4.55;86.63
77106;BME280;66057;54.718;18.426;2022-12-20T09:07:04;101291.03;;;4.43;87.38
77106;BME280;66057;54.718;18.426;2022-12-20T09:09:30;101302.66;;;4.51;87.25
77106;BME280;66057;54.718;18.426;2022-12-20T09:11:56;101312.97;;;4.53;87.20
77106;BME280;66057;54.718;18.426;2022-12-20T09:14:22;101305.75;;;4.47;87.03
77106;BME280;66057;54.718;18.426;2022-12-20T09:16:48;101322.25;;;4.52;87.00
77106;BME280;66057;54.718;18.426;2022-12-20T09:19:14;101303.00;;;4.44;87.49
77106;BME280;66057;54.718;18.426;2022-12-20T09:21:39;101314.38;;;4.61;87.33
77106;BME280;66057;54.718;18.426;2022-12-20T09:24:05;101324.16;;;4.66;87.27
77106;BME280;66057;54.718;18.426;2022-12-20T09:26:32;101316.28;;;4.63;86.94
77106;BME280;66057;54.718;18.426;2022-12-20T09:28:59;101327.56;;;4.67;86.64
77106;BME280;66057;54.718;18.426;2022-12-20T09:31:26;101337.75;;;4.67;87.04
77106;BME280;66057;54.718;18.426;2022-12-20T09:33:55;101349.94;;;4.71;86.21
77106;BME280;66057;54.718;18.426;2022-12-20T09:36:24;101331.34;;;4.72;86.78
77106;BME280;66057;54.718;18.426;2022-12-20T09:38:50;101313.31;;;4.69;86.77
77106;BME280;66057;54.718;18.426;2022-12-20T09:41:24;101329.47;;;4.81;86.67
77106;BME280;66057;54.718;18.426;2022-12-20T09:43:50;101327.16;;;4.84;86.48
77106;BME280;66057;54.718;18.426;2022-12-20T09:46:17;101310.09;;;4.83;86.45
77106;BME280;66057;54.718;18.426;2022-12-20T09:48:43;101300.13;;;4.86;85.49
77106;BME280;66057;54.718;18.426;2022-12-20T09:54:06;101321.19;;;4.83;85.89
77106;BME280;66057;54.718;18.426;2022-12-20T09:56:43;101298.25;;;4.72;85.55
77106;BME280;66057;54.718;18.426;2022-12-20T09:59:12;101307.31;;;4.80;86.22
77106;BME280;66057;54.718;18.426;2022-12-20T10:01:44;101300.34;;;4.77;86.00
77106;BME280;66057;54.718;18.426;2022-12-20T10:04:25;101299.47;;;4.77;86.25
77106;BME280;66057;54.718;18.426;2022-12-20T10:13:09;101299.66;;;4.80;85.51
77106;BME280;66057;54.718;18.426;2022-12-20T10:15:58;101330.69;;;4.86;86.04
77106;BME280;66057;54.718;18.426;2022-12-20T10:18:49;101301.13;;;4.65;86.00
77106;BME280;66057;54.718;18.426;2022-12-20T10:24:16;101321.38;;;4.75;86.47
77106;BME280;66057;54.718;18.426;2022-12-20T10:26:42;101296.25;;;4.68;86.33
77106;BME280;66057;54.718;18.426;2022-12-20T10:29:10;101287.53;;;4.64;86.80
77106;BME280;66057;54.718;18.426;2022-12-20T10:31:35;101307.31;;;4.80;86.59
77106;BME280;66057;54.718;18.426;2022-12-20T10:34:01;101311.88;;;4.84;86.59
77106;BME280;66057;54.718;18.426;2022-12-20T10:36:32;101308.31;;;4.82;86.85
77106;BME280;66057;54.718;18.426;2022-12-20T10:39:00;101303.44;;;4.85;86.85
77106;BME280;66057;54.718;18.426;2022-12-20T10:41:44;101276.31;;;4.62;87.52
77106;BME280;66057;54.718;18.426;2022-12-20T10:44:24;101282.97;;;4.72;87.57
77106;BME280;66057;54.718;18.426;2022-12-20T10:46:51;101292.59;;;4.76;87.66
77106;BME280;66057;54.718;18.426;2022-12-20T10:52:01;101282.19;;;4.73;87.82
77106;BME280;66057;54.718;18.426;2022-12-20T10:54:33;101265.91;;;4.71;87.36
77106;BME280;66057;54.718;18.426;2022-12-20T10:57:03;101283.63;;;4.81;88.26
77106;BME280;66057;54.718;18.426;2022-12-20T10:59:41;101292.38;;;4.84;87.37
77106;BME280;66057;54.718;18.426;2022-12-20T11:02:24;101284.72;;;4.84;87.85
77106;BME280;66057;54.718;18.426;2022-12-20T11:07:35;101283.63;;;4.81;88.10
77106;BME280;66057;54.718;18.426;2022-12-20T11:10:17;101279.78;;;4.74;88.15
77106;BME280;66057;54.718;18.426;2022-12-20T11:15:22;101285.72;;;4.75;88.63
77106;BME280;66057;54.718;18.426;2022-12-20T11:18:13;101291.94;;;4.78;87.76
77106;BME280;66057;54.718;18.426;2022-12-20T11:21:38;101255.28;;;4.53;88.42
77106;BME280;66057;54.718;18.426;2022-12-20T11:37:24;101236.16;;;4.70;88.27
77106;BME280;66057;54.718;18.426;2022-12-20T11:40:10;101264.91;;;4.92;87.69
77106;BME280;66057;54.718;18.426;2022-12-20T11:50:53;101282.19;;;4.96;88.32
77106;BME280;66057;54.718;18.426;2022-12-20T11:53:31;101293.25;;;4.97;88.06
77106;BME280;66057;54.718;18.426;2022-12-20T11:56:06;101284.72;;;4.96;87.84
77106;BME280;66057;54.718;18.426;2022-12-20T11:58:51;101265.56;;;4.90;88.07
77106;BME280;66057;54.718;18.426;2022-12-20T12:01:23;101248.41;;;4.87;87.74
77106;BME280;66057;54.718;18.426;2022-12-20T12:04:00;101277.09;;;5.08;88.57
77106;BME280;66057;54.718;18.426;2022-12-20T12:06:36;101246.19;;;4.92;88.39
77106;BME280;66057;54.718;18.426;2022-12-20T12:11:51;101258.94;;;5.03;88.54
77106;BME280;66057;54.718;18.426;2022-12-20T12:16:58;101233.13;;;4.87;88.22
77106;BME280;66057;54.718;18.426;2022-12-20T12:19:30;101252.69;;;5.00;88.17
77106;BME280;66057;54.718;18.426;2022-12-20T12:22:02;101252.69;;;5.00;88.24
77106;BME280;66057;54.718;18.426;2022-12-20T12:24:34;101264.78;;;5.02;88.19
77106;BME280;66057;54.718;18.426;2022-12-20T12:27:04;101249.63;;;4.92;88.43
77106;BME280;66057;54.718;18.426;2022-12-20T12:29:32;101259.94;;;4.94;88.65
77106;BME280;66057;54.718;18.426;2022-12-20T12:32:16;101247.66;;;4.88;88.88
77106;BME280;66057;54.718;18.426;2022-12-20T12:34:58;101242.31;;;4.97;88.73
77106;BME280;66057;54.718;18.426;2022-12-20T12:38:47;101235.00;;;5.01;88.70
77106;BME280;66057;54.718;18.426;2022-12-20T12:45:47;101241.28;;;5.06;88.64
77106;BME280;66057;54.718;18.426;2022-12-20T12:48:31;101236.53;;;5.11;88.30
77106;BME280;66057;54.718;18.426;2022-12-20T12:51:01;101242.69;;;5.14;88.31
77106;BME280;66057;54.718;18.426;2022-12-20T12:53:33;101199.66;;;4.94;88.24
77106;BME280;66057;54.718;18.426;2022-12-20T13:17:55;101218.75;;;4.88;88.21
77106;BME280;66057;54.718;18.426;2022-12-20T13:20:24;101226.38;;;4.88;88.11
77106;BME280;66057;54.718;18.426;2022-12-20T13:30:44;101248.84;;;4.81;87.84
77106;BME280;66057;54.718;18.426;2022-12-20T13:33:41;101258.41;;;4.84;88.59
77106;BME280;66057;54.718;18.426;2022-12-20T13:38:47;101242.75;;;4.91;89.09
77106;BME280;66057;54.718;18.426;2022-12-20T13:41:45;101243.84;;;4.95;88.23
77106;BME280;66057;54.718;18.426;2022-12-20T13:46:46;101245.38;;;5.04;88.16
77106;BME280;66057;54.718;18.426;2022-12-20T13:49:23;101242.50;;;5.11;87.95
77106;BME280;66057;54.718;18.426;2022-12-20T13:52:10;101232.31;;;5.11;87.44
77106;BME280;66057;54.718;18.426;2022-12-20T13:54:45;101234.41;;;5.17;87.10
77106;BME280;66057;54.718;18.426;2022-12-20T13:57:15;101230.97;;;5.16;86.88
77106;BME280;66057;54.718;18.426;2022-12-20T13:59:50;101229.88;;;5.13;86.88
77106;BME280;66057;54.718;18.426;2022-12-20T14:02:20;101232.88;;;5.07;86.31
77106;BME280;66057;54.718;18.426;2022-12-20T14:04:55;101237.19;;;5.08;86.15
77106;BME280;66057;54.718;18.426;2022-12-20T14:07:23;101215.06;;;4.96;86.41
77106;BME280;66057;54.718;18.426;2022-12-20T14:09:59;101212.25;;;5.04;85.86
77106;BME280;66057;54.718;18.426;2022-12-20T14:12:25;101208.28;;;5.08;86.25
77106;BME280;66057;54.718;18.426;2022-12-20T14:14:52;101200.97;;;5.12;86.05
77106;BME280;66057;54.718;18.426;2022-12-20T14:17:26;101210.13;;;5.22;85.83
77106;BME280;66057;54.718;18.426;2022-12-20T14:20:12;101205.34;;;5.26;85.76
77106;BME280;66057;54.718;18.426;2022-12-20T14:28:24;101198.47;;;5.25;85.33
77106;BME280;66057;54.718;18.426;2022-12-20T14:30:52;101188.41;;;5.15;85.53
77106;BME280;66057;54.718;18.426;2022-12-20T14:33:19;101190.97;;;5.15;85.94
77106;BME280;66057;54.718;18.426;2022-12-20T14:35:49;101157.47;;;4.98;86.04
77106;BME280;66057;54.718;18.426;2022-12-20T14:38:22;101178.38;;;5.05;86.18
77106;BME280;66057;54.718;18.426;2022-12-20T14:40:48;101170.53;;;5.02;86.24
77106;BME280;66057;54.718;18.426;2022-12-20T14:43:31;101166.53;;;5.06;86.74
77106;BME280;66057;54.718;18.426;2022-12-20T14:46:17;101169.06;;;5.06;86.69
77106;BME280;66057;54.718;18.426;2022-12-20T14:48:44;101133.03;;;4.88;86.83
77106;BME280;66057;54.718;18.426;2022-12-20T14:51:12;101147.50;;;5.01;86.92
77106;BME280;66057;54.718;18.426;2022-12-20T14:53:44;101147.50;;;5.01;86.84